sensor_id;sensor_type;location;lat;lon;timestamp;P1;durP1;ratioP1;P2;durP2;ratioP2
67378;SDS011;54262;44.642;-0.974;2023-05-19T00:01:07;6.60;;;2.97;;
67378;SDS011;54262;44.642;-0.974;2023-05-19T00:03:33;3.00;;;2.75;;
67378;SDS011;54262;44.642;-0.974;2023-05-19T00:06:04;2.60;;;2.40;;
67378;SDS011;54262;44.642;-0.974;2023-05-19T00:08:35;3.10;;;2.65;;
67378;SDS011;54262;44.642;-0.974;2023-05-19T00:11:02;5.15;;;2.85;;
67378;SDS011;54262;44.642;-0.974;2023-05-19T00:13:31;3.10;;;2.90;;
67378;SDS011;54262;44.642;-0.974;2023-05-19T00:15:56;5.78;;;2.63;;
67378;SDS011;54262;44.642;-0.974;2023-05-19T00:18:22;2.33;;;2.20;;
67378;SDS011;54262;44.642;-0.974;2023-05-19T00:20:48;4.65;;;2.70;;
67378;SDS011;54262;44.642;-0.974;2023-05-19T00:23:15;4.75;;;3.00;;
67378;SDS011;54262;44.642;-0.974;2023-05-19T00:25:40;2.72;;;2.58;;
67378;SDS011;54262;44.642;-0.974;2023-05-19T00:28:06;3.33;;;2.40;;
67378;SDS011;54262;44.642;-0.974;2023-05-19T00:30:32;3.15;;;2.90;;
67378;SDS011;54262;44.642;-0.974;2023-05-19T00:32:57;3.17;;;2.88;;
67378;SDS011;54262;44.642;-0.974;2023-05-19T00:35:23;3.25;;;2.58;;
67378;SDS011;54262;44.642;-0.974;2023-05-19T00:37:49;2.70;;;2.50;;
67378;SDS011;54262;44.642;-0.974;2023-05-19T00:40:14;3.45;;;3.13;;
67378;SDS011;54262;44.642;-0.974;2023-05-19T00:42:40;2.70;;;2.53;;
67378;SDS011;54262;44.642;-0.974;2023-05-19T00:45:06;3.08;;;2.85;;
67378;SDS011;54262;44.642;-0.974;2023-05-19T00:47:32;3.38;;;3.08;;
67378;SDS011;54262;44.642;-0.974;2023-05-19T00:49:58;2.72;;;2.35;;
67378;SDS011;54262;44.642;-0.974;2023-05-19T00:52:24;2.78;;;2.58;;
67378;SDS011;54262;44.642;-0.974;2023-05-19T00:54:50;2.92;;;2.72;;
67378;SDS011;54262;44.642;-0.974;2023-05-19T00:57:17;3.08;;;2.88;;
67378;SDS011;54262;44.642;-0.974;2023-05-19T00:59:45;2.65;;;2.55;;
67378;SDS011;54262;44.642;-0.974;2023-05-19T01:02:11;3.28;;;2.72;;
67378;SDS011;54262;44.642;-0.974;2023-05-19T01:04:38;5.35;;;2.70;;
67378;SDS011;54262;44.642;-0.974;2023-05-19T01:07:05;2.88;;;2.60;;
67378;SDS011;54262;44.642;-0.974;2023-05-19T01:09:34;2.90;;;2.80;;
67378;SDS011;54262;44.642;-0.974;2023-05-19T01:12:01;2.95;;;2.75;;
67378;SDS011;54262;44.642;-0.974;2023-05-19T01:14:29;5.68;;;2.20;;
67378;SDS011;54262;44.642;-0.974;2023-05-19T01:17:06;3.53;;;3.22;;
67378;SDS011;54262;44.642;-0.974;2023-05-19T01:19:51;3.22;;;2.70;;
67378;SDS011;54262;44.642;-0.974;2023-05-19T01:28:44;3.70;;;2.47;;
67378;SDS011;54262;44.642;-0.974;2023-05-19T01:31:16;3.45;;;2.75;;
67378;SDS011;54262;44.642;-0.974;2023-05-19T01:33:48;2.85;;;2.58;;
67378;SDS011;54262;44.642;-0.974;2023-05-19T01:36:15;2.90;;;2.70;;
67378;SDS011;54262;44.642;-0.974;2023-05-19T01:38:42;2.55;;;2.38;;
67378;SDS011;54262;44.642;-0.974;2023-05-19T01:41:10;3.00;;;2.80;;
67378;SDS011;54262;44.642;-0.974;2023-05-19T01:43:37;3.80;;;2.20;;
67378;SDS011;54262;44.642;-0.974;2023-05-19T01:46:04;2.50;;;2.40;;
67378;SDS011;54262;44.642;-0.974;2023-05-19T01:48:30;2.92;;;2.72;;
67378;SDS011;54262;44.642;-0.974;2023-05-19T01:50:57;3.60;;;2.40;;
67378;SDS011;54262;44.642;-0.974;2023-05-19T01:53:23;2.83;;;2.70;;
67378;SDS011;54262;44.642;-0.974;2023-05-19T01:55:51;4.03;;;2.90;;
67378;SDS011;54262;44.642;-0.974;2023-05-19T01:58:25;3.15;;;2.75;;
67378;SDS011;54262;44.642;-0.974;2023-05-19T02:01:22;3.45;;;3.25;;
67378;SDS011;54262;44.642;-0.974;2023-05-19T02:04:08;3.45;;;2.95;;
67378;SDS011;54262;44.642;-0.974;2023-05-19T02:09:30;3.00;;;2.90;;
67378;SDS011;54262;44.642;-0.974;2023-05-19T02:12:13;3.47;;;3.28;;
67378;SDS011;54262;44.642;-0.974;2023-05-19T02:17:21;6.97;;;3.67;;
67378;SDS011;54262;44.642;-0.974;2023-05-19T02:19:51;2.95;;;2.75;;
67378;SDS011;54262;44.642;-0.974;2023-05-19T02:22:16;4.07;;;2.70;;
67378;SDS011;54262;44.642;-0.974;2023-05-19T02:24:42;9.13;;;3.53;;
67378;SDS011;54262;44.642;-0.974;2023-05-19T02:27:10;2.97;;;2.88;;
67378;SDS011;54262;44.642;-0.974;2023-05-19T02:29:36;4.03;;;3.60;;
67378;SDS011;54262;44.642;-0.974;2023-05-19T02:32:01;4.22;;;3.80;;
67378;SDS011;54262;44.642;-0.974;2023-05-19T02:34:27;4.40;;;3.85;;
67378;SDS011;54262;44.642;-0.974;2023-05-19T02:36:53;4.63;;;3.53;;
67378;SDS011;54262;44.642;-0.974;2023-05-19T02:39:20;4.03;;;3.72;;
67378;SDS011;54262;44.642;-0.974;2023-05-19T02:41:46;3.67;;;3.38;;
67378;SDS011;54262;44.642;-0.974;2023-05-19T02:44:11;3.70;;;3.40;;
67378;SDS011;54262;44.642;-0.974;2023-05-19T02:46:37;6.68;;;3.50;;
67378;SDS011;54262;44.642;-0.974;2023-05-19T02:49:03;7.75;;;3.88;;
67378;SDS011;54262;44.642;-0.974;2023-05-19T02:51:28;3.38;;;3.08;;
67378;SDS011;54262;44.642;-0.974;2023-05-19T02:53:54;3.78;;;3.50;;
67378;SDS011;54262;44.642;-0.974;2023-05-19T02:56:20;5.18;;;3.60;;
67378;SDS011;54262;44.642;-0.974;2023-05-19T02:58:45;3.47;;;3.20;;
67378;SDS011;54262;44.642;-0.974;2023-05-19T03:01:11;3.92;;;3.72;;
67378;SDS011;54262;44.642;-0.974;2023-05-19T03:03:37;4.10;;;3.53;;
67378;SDS011;54262;44.642;-0.974;2023-05-19T03:06:02;5.25;;;3.25;;
67378;SDS011;54262;44.642;-0.974;2023-05-19T03:08:28;5.05;;;3.50;;
67378;SDS011;54262;44.642;-0.974;2023-05-19T03:10:56;3.88;;;3.58;;
67378;SDS011;54262;44.642;-0.974;2023-05-19T03:13:22;6.80;;;4.07;;
67378;SDS011;54262;44.642;-0.974;2023-05-19T03:15:50;3.25;;;3.13;;
67378;SDS011;54262;44.642;-0.974;2023-05-19T03:18:15;4.18;;;3.20;;
67378;SDS011;54262;44.642;-0.974;2023-05-19T03:20:41;4.03;;;3.72;;
67378;SDS011;54262;44.642;-0.974;2023-05-19T03:23:08;3.78;;;3.40;;
67378;SDS011;54262;44.642;-0.974;2023-05-19T03:25:34;6.00;;;3.50;;
67378;SDS011;54262;44.642;-0.974;2023-05-19T03:28:00;3.35;;;3.10;;
67378;SDS011;54262;44.642;-0.974;2023-05-19T03:30:26;4.32;;;3.78;;
67378;SDS011;54262;44.642;-0.974;2023-05-19T03:32:51;3.90;;;3.60;;
67378;SDS011;54262;44.642;-0.974;2023-05-19T03:35:17;3.65;;;3.30;;
67378;SDS011;54262;44.642;-0.974;2023-05-19T03:37:43;3.13;;;2.92;;
67378;SDS011;54262;44.642;-0.974;2023-05-19T03:40:08;3.53;;;3.33;;
67378;SDS011;54262;44.642;-0.974;2023-05-19T03:42:34;8.13;;;3.50;;
67378;SDS011;54262;44.642;-0.974;2023-05-19T03:45:00;4.15;;;3.30;;
67378;SDS011;54262;44.642;-0.974;2023-05-19T03:47:26;3.92;;;3.58;;
67378;SDS011;54262;44.642;-0.974;2023-05-19T03:49:52;5.00;;;3.08;;
67378;SDS011;54262;44.642;-0.974;2023-05-19T03:52:17;8.70;;;3.47;;
67378;SDS011;54262;44.642;-0.974;2023-05-19T03:54:43;6.05;;;3.63;;
67378;SDS011;54262;44.642;-0.974;2023-05-19T03:57:09;3.85;;;3.50;;
67378;SDS011;54262;44.642;-0.974;2023-05-19T03:59:35;3.22;;;2.97;;
67378;SDS011;54262;44.642;-0.974;2023-05-19T04:02:01;4.13;;;3.80;;
67378;SDS011;54262;44.642;-0.974;2023-05-19T04:04:27;4.13;;;3.78;;
67378;SDS011;54262;44.642;-0.974;2023-05-19T04:06:53;5.38;;;3.08;;
67378;SDS011;54262;44.642;-0.974;2023-05-19T04:09:21;3.58;;;3.22;;
67378;SDS011;54262;44.642;-0.974;2023-05-19T04:11:50;4.35;;;3.35;;
67378;SDS011;54262;44.642;-0.974;2023-05-19T04:14:16;4.50;;;3.90;;
67378;SDS011;54262;44.642;-0.974;2023-05-19T04:16:44;3.28;;;3.17;;
67378;SDS011;54262;44.642;-0.974;2023-05-19T04:19:10;5.47;;;4.70;;
67378;SDS011;54262;44.642;-0.974;2023-05-19T04:21:35;4.38;;;3.50;;
67378;SDS011;54262;44.642;-0.974;2023-05-19T04:24:01;4.18;;;3.97;;
67378;SDS011;54262;44.642;-0.974;2023-05-19T04:26:30;4.80;;;3.83;;
67378;SDS011;54262;44.642;-0.974;2023-05-19T04:28:57;4.45;;;3.72;;
67378;SDS011;54262;44.642;-0.974;2023-05-19T04:31:23;9.40;;;3.72;;
67378;SDS011;54262;44.642;-0.974;2023-05-19T04:33:49;5.43;;;4.03;;
67378;SDS011;54262;44.642;-0.974;2023-05-19T04:36:17;7.13;;;4.05;;
67378;SDS011;54262;44.642;-0.974;2023-05-19T04:38:45;4.75;;;3.80;;
67378;SDS011;54262;44.642;-0.974;2023-05-19T04:41:11;3.92;;;3.63;;
67378;SDS011;54262;44.642;-0.974;2023-05-19T04:43:37;8.63;;;3.78;;
67378;SDS011;54262;44.642;-0.974;2023-05-19T04:46:14;3.95;;;3.72;;
67378;SDS011;54262;44.642;-0.974;2023-05-19T04:48:40;5.47;;;4.10;;
67378;SDS011;54262;44.642;-0.974;2023-05-19T04:51:06;9.77;;;4.63;;
67378;SDS011;54262;44.642;-0.974;2023-05-19T04:53:32;4.82;;;4.30;;
67378;SDS011;54262;44.642;-0.974;2023-05-19T04:55:58;12.95;;;4.22;;
67378;SDS011;54262;44.642;-0.974;2023-05-19T04:58:25;4.47;;;4.20;;
67378;SDS011;54262;44.642;-0.974;2023-05-19T05:00:51;4.85;;;4.28;;
67378;SDS011;54262;44.642;-0.974;2023-05-19T05:03:19;5.80;;;4.28;;
67378;SDS011;54262;44.642;-0.974;2023-05-19T05:05:48;5.72;;;4.32;;
67378;SDS011;54262;44.642;-0.974;2023-05-19T05:08:14;4.80;;;3.95;;
67378;SDS011;54262;44.642;-0.974;2023-05-19T05:10:45;4.97;;;3.90;;
67378;SDS011;54262;44.642;-0.974;2023-05-19T05:13:13;4.63;;;4.25;;
67378;SDS011;54262;44.642;-0.974;2023-05-19T05:15:39;7.88;;;3.75;;
67378;SDS011;54262;44.642;-0.974;2023-05-19T05:18:08;9.45;;;4.68;;
67378;SDS011;54262;44.642;-0.974;2023-05-19T05:20:34;6.97;;;4.22;;
67378;SDS011;54262;44.642;-0.974;2023-05-19T05:23:00;4.53;;;4.10;;
67378;SDS011;54262;44.642;-0.974;2023-05-19T05:25:26;5.30;;;4.13;;
67378;SDS011;54262;44.642;-0.974;2023-05-19T05:27:52;3.72;;;3.53;;
67378;SDS011;54262;44.642;-0.974;2023-05-19T05:30:17;4.25;;;3.90;;
67378;SDS011;54262;44.642;-0.974;2023-05-19T05:32:43;5.03;;;4.10;;
67378;SDS011;54262;44.642;-0.974;2023-05-19T05:35:09;5.10;;;3.50;;
67378;SDS011;54262;44.642;-0.974;2023-05-19T05:37:35;7.90;;;4.15;;
67378;SDS011;54262;44.642;-0.974;2023-05-19T05:40:00;4.38;;;4.00;;
67378;SDS011;54262;44.642;-0.974;2023-05-19T05:42:26;4.35;;;4.05;;
67378;SDS011;54262;44.642;-0.974;2023-05-19T05:44:51;5.63;;;4.35;;
67378;SDS011;54262;44.642;-0.974;2023-05-19T05:47:17;7.07;;;3.97;;
67378;SDS011;54262;44.642;-0.974;2023-05-19T05:49:43;4.78;;;4.32;;
67378;SDS011;54262;44.642;-0.974;2023-05-19T05:52:12;6.28;;;4.20;;
67378;SDS011;54262;44.642;-0.974;2023-05-19T05:54:39;4.13;;;3.78;;
67378;SDS011;54262;44.642;-0.974;2023-05-19T05:57:05;5.55;;;3.75;;
67378;SDS011;54262;44.642;-0.974;2023-05-19T05:59:31;4.43;;;4.13;;
67378;SDS011;54262;44.642;-0.974;2023-05-19T06:01:57;3.95;;;3.65;;
67378;SDS011;54262;44.642;-0.974;2023-05-19T06:04:23;3.75;;;3.55;;
67378;SDS011;54262;44.642;-0.974;2023-05-19T06:06:49;7.35;;;3.58;;
67378;SDS011;54262;44.642;-0.974;2023-05-19T06:09:16;4.70;;;3.55;;
67378;SDS011;54262;44.642;-0.974;2023-05-19T06:11:42;4.68;;;3.00;;
67378;SDS011;54262;44.642;-0.974;2023-05-19T06:14:10;3.33;;;3.03;;
67378;SDS011;54262;44.642;-0.974;2023-05-19T06:16:36;3.33;;;3.13;;
67378;SDS011;54262;44.642;-0.974;2023-05-19T06:19:04;5.05;;;3.63;;
67378;SDS011;54262;44.642;-0.974;2023-05-19T06:21:29;10.65;;;3.45;;
67378;SDS011;54262;44.642;-0.974;2023-05-19T06:23:55;3.08;;;2.85;;
67378;SDS011;54262;44.642;-0.974;2023-05-19T06:26:21;6.10;;;2.85;;
67378;SDS011;54262;44.642;-0.974;2023-05-19T06:28:46;5.88;;;3.22;;
67378;SDS011;54262;44.642;-0.974;2023-05-19T06:31:12;3.08;;;2.65;;
67378;SDS011;54262;44.642;-0.974;2023-05-19T06:33:38;3.38;;;2.85;;
67378;SDS011;54262;44.642;-0.974;2023-05-19T06:36:03;6.68;;;2.55;;
67378;SDS011;54262;44.642;-0.974;2023-05-19T06:38:29;4.82;;;2.40;;
67378;SDS011;54262;44.642;-0.974;2023-05-19T06:40:55;3.53;;;2.47;;
67378;SDS011;54262;44.642;-0.974;2023-05-19T06:43:21;4.20;;;2.63;;
67378;SDS011;54262;44.642;-0.974;2023-05-19T06:45:46;4.40;;;2.90;;
67378;SDS011;54262;44.642;-0.974;2023-05-19T06:48:12;3.05;;;2.85;;
67378;SDS011;54262;44.642;-0.974;2023-05-19T06:50:38;5.43;;;2.72;;
67378;SDS011;54262;44.642;-0.974;2023-05-19T06:53:03;3.00;;;2.53;;
67378;SDS011;54262;44.642;-0.974;2023-05-19T06:55:30;5.70;;;2.80;;
67378;SDS011;54262;44.642;-0.974;2023-05-19T06:57:56;2.28;;;2.08;;
67378;SDS011;54262;44.642;-0.974;2023-05-19T07:00:21;6.60;;;2.25;;
67378;SDS011;54262;44.642;-0.974;2023-05-19T07:02:47;4.53;;;2.35;;
67378;SDS011;54262;44.642;-0.974;2023-05-19T07:05:13;3.45;;;2.22;;
67378;SDS011;54262;44.642;-0.974;2023-05-19T07:07:38;3.75;;;2.38;;
67378;SDS011;54262;44.642;-0.974;2023-05-19T07:10:05;3.78;;;2.17;;
67378;SDS011;54262;44.642;-0.974;2023-05-19T07:12:31;3.60;;;2.65;;
67378;SDS011;54262;44.642;-0.974;2023-05-19T07:14:59;3.22;;;2.20;;
67378;SDS011;54262;44.642;-0.974;2023-05-19T07:17:25;2.33;;;2.17;;
67378;SDS011;54262;44.642;-0.974;2023-05-19T07:19:53;3.13;;;2.40;;
67378;SDS011;54262;44.642;-0.974;2023-05-19T07:22:18;4.07;;;2.65;;
67378;SDS011;54262;44.642;-0.974;2023-05-19T07:24:45;2.38;;;2.17;;
67378;SDS011;54262;44.642;-0.974;2023-05-19T07:27:10;3.83;;;2.63;;
67378;SDS011;54262;44.642;-0.974;2023-05-19T07:29:36;4.75;;;2.45;;
67378;SDS011;54262;44.642;-0.974;2023-05-19T07:32:01;2.78;;;2.47;;
67378;SDS011;54262;44.642;-0.974;2023-05-19T07:34:27;9.05;;;2.72;;
67378;SDS011;54262;44.642;-0.974;2023-05-19T07:36:53;5.50;;;2.38;;
67378;SDS011;54262;44.642;-0.974;2023-05-19T07:39:18;5.32;;;2.45;;
67378;SDS011;54262;44.642;-0.974;2023-05-19T07:41:44;3.42;;;3.13;;
67378;SDS011;54262;44.642;-0.974;2023-05-19T07:44:16;5.00;;;2.15;;
67378;SDS011;54262;44.642;-0.974;2023-05-19T07:46:42;4.85;;;2.53;;
67378;SDS011;54262;44.642;-0.974;2023-05-19T07:49:08;3.88;;;3.42;;
67378;SDS011;54262;44.642;-0.974;2023-05-19T07:51:34;3.17;;;2.20;;
67378;SDS011;54262;44.642;-0.974;2023-05-19T07:53:59;4.47;;;3.00;;
67378;SDS011;54262;44.642;-0.974;2023-05-19T07:56:25;3.45;;;2.58;;
67378;SDS011;54262;44.642;-0.974;2023-05-19T07:58:51;6.93;;;2.83;;
67378;SDS011;54262;44.642;-0.974;2023-05-19T08:01:17;3.63;;;2.50;;
67378;SDS011;54262;44.642;-0.974;2023-05-19T08:03:42;2.70;;;2.50;;
67378;SDS011;54262;44.642;-0.974;2023-05-19T08:06:08;7.10;;;2.63;;
67378;SDS011;54262;44.642;-0.974;2023-05-19T08:08:33;4.18;;;2.45;;
67378;SDS011;54262;44.642;-0.974;2023-05-19T08:11:02;2.97;;;2.50;;
67378;SDS011;54262;44.642;-0.974;2023-05-19T08:13:28;2.78;;;2.50;;
67378;SDS011;54262;44.642;-0.974;2023-05-19T08:15:57;3.50;;;2.58;;
67378;SDS011;54262;44.642;-0.974;2023-05-19T08:18:26;2.53;;;2.10;;
67378;SDS011;54262;44.642;-0.974;2023-05-19T08:20:55;3.75;;;3.05;;
67378;SDS011;54262;44.642;-0.974;2023-05-19T08:23:20;2.60;;;2.33;;
67378;SDS011;54262;44.642;-0.974;2023-05-19T08:25:46;4.43;;;2.53;;
67378;SDS011;54262;44.642;-0.974;2023-05-19T08:28:12;4.32;;;2.65;;
67378;SDS011;54262;44.642;-0.974;2023-05-19T08:30:38;3.67;;;2.05;;
67378;SDS011;54262;44.642;-0.974;2023-05-19T08:33:03;2.58;;;2.25;;
67378;SDS011;54262;44.642;-0.974;2023-05-19T08:35:29;4.07;;;2.60;;
67378;SDS011;54262;44.642;-0.974;2023-05-19T08:37:55;6.25;;;2.55;;
67378;SDS011;54262;44.642;-0.974;2023-05-19T08:40:21;3.17;;;2.38;;
67378;SDS011;54262;44.642;-0.974;2023-05-19T08:42:47;2.88;;;2.47;;
67378;SDS011;54262;44.642;-0.974;2023-05-19T08:45:13;7.82;;;3.00;;
67378;SDS011;54262;44.642;-0.974;2023-05-19T08:47:43;2.70;;;2.42;;
67378;SDS011;54262;44.642;-0.974;2023-05-19T08:50:10;8.38;;;2.40;;
67378;SDS011;54262;44.642;-0.974;2023-05-19T08:58:11;2.72;;;2.45;;
67378;SDS011;54262;44.642;-0.974;2023-05-19T09:00:39;4.82;;;2.50;;
67378;SDS011;54262;44.642;-0.974;2023-05-19T09:03:05;4.95;;;2.08;;
67378;SDS011;54262;44.642;-0.974;2023-05-19T09:05:31;4.25;;;2.17;;
67378;SDS011;54262;44.642;-0.974;2023-05-19T09:07:57;4.90;;;2.22;;
67378;SDS011;54262;44.642;-0.974;2023-05-19T09:10:26;7.05;;;2.72;;
67378;SDS011;54262;44.642;-0.974;2023-05-19T09:12:52;6.22;;;2.50;;
67378;SDS011;54262;44.642;-0.974;2023-05-19T09:15:18;4.50;;;2.28;;
67378;SDS011;54262;44.642;-0.974;2023-05-19T09:17:46;4.72;;;2.20;;
67378;SDS011;54262;44.642;-0.974;2023-05-19T09:20:12;2.50;;;2.30;;
67378;SDS011;54262;44.642;-0.974;2023-05-19T09:22:41;3.28;;;2.33;;
67378;SDS011;54262;44.642;-0.974;2023-05-19T09:25:21;3.22;;;2.92;;
67378;SDS011;54262;44.642;-0.974;2023-05-19T09:27:47;5.18;;;2.63;;
67378;SDS011;54262;44.642;-0.974;2023-05-19T09:30:16;6.85;;;2.92;;
67378;SDS011;54262;44.642;-0.974;2023-05-19T09:32:42;4.38;;;2.72;;
67378;SDS011;54262;44.642;-0.974;2023-05-19T09:35:09;3.38;;;2.13;;
67378;SDS011;54262;44.642;-0.974;2023-05-19T09:37:39;8.68;;;6.72;;
67378;SDS011;54262;44.642;-0.974;2023-05-19T09:40:07;4.10;;;3.10;;
67378;SDS011;54262;44.642;-0.974;2023-05-19T09:42:38;8.13;;;4.22;;
67378;SDS011;54262;44.642;-0.974;2023-05-19T09:45:05;13.05;;;6.80;;
67378;SDS011;54262;44.642;-0.974;2023-05-19T09:50:01;15.75;;;10.07;;
67378;SDS011;54262;44.642;-0.974;2023-05-19T09:52:28;8.00;;;4.93;;
67378;SDS011;54262;44.642;-0.974;2023-05-19T09:54:55;3.58;;;3.13;;
67378;SDS011;54262;44.642;-0.974;2023-05-19T09:57:26;3.42;;;3.10;;
67378;SDS011;54262;44.642;-0.974;2023-05-19T09:59:57;2.65;;;1.90;;
67378;SDS011;54262;44.642;-0.974;2023-05-19T10:02:24;2.88;;;2.20;;
67378;SDS011;54262;44.642;-0.974;2023-05-19T10:04:51;3.65;;;2.15;;
67378;SDS011;54262;44.642;-0.974;2023-05-19T10:07:18;2.08;;;1.98;;
67378;SDS011;54262;44.642;-0.974;2023-05-19T10:09:45;5.38;;;2.55;;
67378;SDS011;54262;44.642;-0.974;2023-05-19T10:12:12;2.60;;;2.40;;
67378;SDS011;54262;44.642;-0.974;2023-05-19T10:14:38;5.57;;;2.30;;
67378;SDS011;54262;44.642;-0.974;2023-05-19T10:17:05;3.72;;;2.67;;
67378;SDS011;54262;44.642;-0.974;2023-05-19T10:19:34;4.03;;;2.00;;
67378;SDS011;54262;44.642;-0.974;2023-05-19T10:22:01;3.72;;;2.35;;
67378;SDS011;54262;44.642;-0.974;2023-05-19T10:24:29;3.97;;;3.13;;
67378;SDS011;54262;44.642;-0.974;2023-05-19T10:26:56;1.92;;;1.73;;
67378;SDS011;54262;44.642;-0.974;2023-05-19T10:29:30;3.35;;;2.50;;
67378;SDS011;54262;44.642;-0.974;2023-05-19T10:32:01;8.95;;;2.35;;
67378;SDS011;54262;44.642;-0.974;2023-05-19T10:34:35;2.28;;;2.13;;
67378;SDS011;54262;44.642;-0.974;2023-05-19T10:40:08;2.90;;;2.10;;
67378;SDS011;54262;44.642;-0.974;2023-05-19T10:42:44;3.65;;;2.05;;
67378;SDS011;54262;44.642;-0.974;2023-05-19T10:45:47;4.07;;;2.38;;
67378;SDS011;54262;44.642;-0.974;2023-05-19T10:48:15;5.25;;;2.67;;
67378;SDS011;54262;44.642;-0.974;2023-05-19T10:50:44;3.75;;;2.33;;
67378;SDS011;54262;44.642;-0.974;2023-05-19T10:53:13;2.70;;;2.10;;
67378;SDS011;54262;44.642;-0.974;2023-05-19T10:56:01;1.80;;;1.70;;
67378;SDS011;54262;44.642;-0.974;2023-05-19T11:01:12;2.95;;;2.33;;
67378;SDS011;54262;44.642;-0.974;2023-05-19T11:03:49;3.63;;;2.53;;
67378;SDS011;54262;44.642;-0.974;2023-05-19T11:06:28;3.30;;;2.05;;
67378;SDS011;54262;44.642;-0.974;2023-05-19T11:11:21;2.58;;;1.88;;
67378;SDS011;54262;44.642;-0.974;2023-05-19T11:13:50;2.95;;;1.92;;
67378;SDS011;54262;44.642;-0.974;2023-05-19T11:16:26;2.40;;;2.20;;
67378;SDS011;54262;44.642;-0.974;2023-05-19T11:18:53;3.20;;;1.92;;
67378;SDS011;54262;44.642;-0.974;2023-05-19T11:21:25;4.60;;;2.13;;
67378;SDS011;54262;44.642;-0.974;2023-05-19T11:27:27;3.47;;;1.88;;
67378;SDS011;54262;44.642;-0.974;2023-05-19T11:30:01;2.28;;;2.08;;
67378;SDS011;54262;44.642;-0.974;2023-05-19T11:32:33;2.95;;;2.10;;
67378;SDS011;54262;44.642;-0.974;2023-05-19T11:35:03;4.65;;;2.00;;
67378;SDS011;54262;44.642;-0.974;2023-05-19T11:37:30;2.70;;;2.50;;
67378;SDS011;54262;44.642;-0.974;2023-05-19T11:39:56;2.20;;;2.00;;
67378;SDS011;54262;44.642;-0.974;2023-05-19T11:42:25;3.35;;;2.33;;
67378;SDS011;54262;44.642;-0.974;2023-05-19T11:44:53;3.03;;;2.15;;
67378;SDS011;54262;44.642;-0.974;2023-05-19T11:47:20;4.80;;;2.25;;
67378;SDS011;54262;44.642;-0.974;2023-05-19T11:49:49;3.75;;;2.05;;
67378;SDS011;54262;44.642;-0.974;2023-05-19T11:52:21;2.45;;;2.15;;
67378;SDS011;54262;44.642;-0.974;2023-05-19T11:54:48;2.25;;;1.98;;
67378;SDS011;54262;44.642;-0.974;2023-05-19T11:57:14;2.55;;;2.30;;
67378;SDS011;54262;44.642;-0.974;2023-05-19T11:59:39;4.03;;;2.20;;
67378;SDS011;54262;44.642;-0.974;2023-05-19T12:02:24;4.60;;;1.95;;
67378;SDS011;54262;44.642;-0.974;2023-05-19T12:04:51;2.78;;;2.03;;
67378;SDS011;54262;44.642;-0.974;2023-05-19T12:07:18;2.72;;;2.42;;
67378;SDS011;54262;44.642;-0.974;2023-05-19T12:09:47;2.38;;;1.83;;
67378;SDS011;54262;44.642;-0.974;2023-05-19T12:12:14;2.85;;;2.60;;
67378;SDS011;54262;44.642;-0.974;2023-05-19T12:14:41;5.65;;;2.72;;
67378;SDS011;54262;44.642;-0.974;2023-05-19T12:17:11;2.60;;;2.35;;
67378;SDS011;54262;44.642;-0.974;2023-05-19T12:19:37;2.33;;;2.13;;
67378;SDS011;54262;44.642;-0.974;2023-05-19T12:22:07;5.05;;;2.30;;
67378;SDS011;54262;44.642;-0.974;2023-05-19T12:24:36;2.38;;;2.17;;
67378;SDS011;54262;44.642;-0.974;2023-05-19T12:29:40;2.65;;;2.45;;
67378;SDS011;54262;44.642;-0.974;2023-05-19T12:32:06;2.35;;;2.00;;
67378;SDS011;54262;44.642;-0.974;2023-05-19T12:34:36;2.20;;;1.92;;
67378;SDS011;54262;44.642;-0.974;2023-05-19T12:37:05;2.42;;;2.20;;
67378;SDS011;54262;44.642;-0.974;2023-05-19T12:39:31;2.83;;;2.25;;
67378;SDS011;54262;44.642;-0.974;2023-05-19T12:42:07;3.20;;;1.88;;
67378;SDS011;54262;44.642;-0.974;2023-05-19T12:44:37;2.05;;;1.85;;
67378;SDS011;54262;44.642;-0.974;2023-05-19T12:47:07;3.08;;;1.90;;
67378;SDS011;54262;44.642;-0.974;2023-05-19T12:49:33;2.38;;;2.17;;
67378;SDS011;54262;44.642;-0.974;2023-05-19T12:52:01;2.60;;;2.25;;
67378;SDS011;54262;44.642;-0.974;2023-05-19T12:54:31;5.75;;;1.80;;
67378;SDS011;54262;44.642;-0.974;2023-05-19T12:56:57;3.83;;;2.35;;
67378;SDS011;54262;44.642;-0.974;2023-05-19T12:59:23;1.85;;;1.50;;
67378;SDS011;54262;44.642;-0.974;2023-05-19T13:01:56;3.85;;;2.50;;
67378;SDS011;54262;44.642;-0.974;2023-05-19T13:04:25;2.88;;;2.30;;
67378;SDS011;54262;44.642;-0.974;2023-05-19T13:06:51;8.82;;;2.28;;
67378;SDS011;54262;44.642;-0.974;2023-05-19T13:09:18;4.47;;;2.33;;
67378;SDS011;54262;44.642;-0.974;2023-05-19T13:11:45;2.85;;;1.80;;
67378;SDS011;54262;44.642;-0.974;2023-05-19T13:14:15;1.83;;;1.73;;
67378;SDS011;54262;44.642;-0.974;2023-05-19T13:16:42;3.85;;;1.88;;
67378;SDS011;54262;44.642;-0.974;2023-05-19T13:19:10;2.70;;;1.77;;
67378;SDS011;54262;44.642;-0.974;2023-05-19T13:21:37;2.33;;;2.00;;
67378;SDS011;54262;44.642;-0.974;2023-05-19T13:24:05;2.50;;;2.20;;
67378;SDS011;54262;44.642;-0.974;2023-05-19T13:26:31;2.38;;;2.15;;
67378;SDS011;54262;44.642;-0.974;2023-05-19T13:28:57;6.78;;;3.17;;
67378;SDS011;54262;44.642;-0.974;2023-05-19T13:31:25;2.88;;;2.67;;
67378;SDS011;54262;44.642;-0.974;2023-05-19T13:33:50;2.72;;;2.53;;
67378;SDS011;54262;44.642;-0.974;2023-05-19T13:36:16;7.60;;;2.78;;
67378;SDS011;54262;44.642;-0.974;2023-05-19T13:38:42;5.78;;;3.28;;
67378;SDS011;54262;44.642;-0.974;2023-05-19T13:41:07;3.75;;;2.58;;
67378;SDS011;54262;44.642;-0.974;2023-05-19T13:43:33;1.40;;;1.30;;
67378;SDS011;54262;44.642;-0.974;2023-05-19T13:45:59;2.45;;;2.25;;
67378;SDS011;54262;44.642;-0.974;2023-05-19T13:48:25;1.65;;;1.55;;
67378;SDS011;54262;44.642;-0.974;2023-05-19T13:50:50;1.90;;;1.75;;
67378;SDS011;54262;44.642;-0.974;2023-05-19T13:53:18;4.13;;;2.97;;
67378;SDS011;54262;44.642;-0.974;2023-05-19T13:55:44;1.90;;;1.52;;
67378;SDS011;54262;44.642;-0.974;2023-05-19T13:58:10;1.90;;;1.80;;
67378;SDS011;54262;44.642;-0.974;2023-05-19T14:00:37;7.82;;;2.88;;
67378;SDS011;54262;44.642;-0.974;2023-05-19T14:03:03;3.90;;;2.53;;
67378;SDS011;54262;44.642;-0.974;2023-05-19T14:05:29;4.18;;;2.70;;
67378;SDS011;54262;44.642;-0.974;2023-05-19T14:07:55;2.40;;;2.20;;
67378;SDS011;54262;44.642;-0.974;2023-05-19T14:10:20;2.40;;;1.65;;
67378;SDS011;54262;44.642;-0.974;2023-05-19T14:12:46;2.92;;;2.72;;
67378;SDS011;54262;44.642;-0.974;2023-05-19T14:15:12;2.58;;;2.10;;
67378;SDS011;54262;44.642;-0.974;2023-05-19T14:17:38;5.88;;;2.13;;
67378;SDS011;54262;44.642;-0.974;2023-05-19T14:20:04;2.47;;;2.10;;
67378;SDS011;54262;44.642;-0.974;2023-05-19T14:22:30;1.73;;;1.63;;
67378;SDS011;54262;44.642;-0.974;2023-05-19T14:24:58;4.75;;;2.65;;
67378;SDS011;54262;44.642;-0.974;2023-05-19T14:27:24;1.88;;;1.70;;
67378;SDS011;54262;44.642;-0.974;2023-05-19T14:29:50;2.75;;;2.35;;
67378;SDS011;54262;44.642;-0.974;2023-05-19T14:32:18;2.03;;;1.83;;
67378;SDS011;54262;44.642;-0.974;2023-05-19T14:34:43;4.10;;;2.67;;
67378;SDS011;54262;44.642;-0.974;2023-05-19T14:37:09;3.60;;;3.00;;
67378;SDS011;54262;44.642;-0.974;2023-05-19T14:39:35;4.03;;;2.30;;
67378;SDS011;54262;44.642;-0.974;2023-05-19T14:42:00;3.53;;;2.65;;
67378;SDS011;54262;44.642;-0.974;2023-05-19T14:44:29;4.55;;;2.22;;
67378;SDS011;54262;44.642;-0.974;2023-05-19T14:46:57;6.43;;;2.90;;
67378;SDS011;54262;44.642;-0.974;2023-05-19T14:49:23;5.50;;;3.33;;
67378;SDS011;54262;44.642;-0.974;2023-05-19T14:51:49;3.58;;;2.08;;
67378;SDS011;54262;44.642;-0.974;2023-05-19T14:54:15;2.38;;;2.17;;
67378;SDS011;54262;44.642;-0.974;2023-05-19T14:56:40;7.63;;;2.88;;
67378;SDS011;54262;44.642;-0.974;2023-05-19T14:59:06;3.05;;;2.22;;
67378;SDS011;54262;44.642;-0.974;2023-05-19T15:01:32;4.13;;;2.33;;
67378;SDS011;54262;44.642;-0.974;2023-05-19T15:03:57;4.93;;;2.78;;
67378;SDS011;54262;44.642;-0.974;2023-05-19T15:06:23;1.55;;;1.25;;
67378;SDS011;54262;44.642;-0.974;2023-05-19T15:08:48;3.08;;;2.35;;